createdAt,value
2023-01-30T00:12:52.000Z,18.2
2023-01-30T00:27:30.000Z,18.4
2023-01-30T00:42:03.000Z,17.7
2023-01-30T00:56:41.000Z,18.3
2023-01-30T01:11:16.000Z,17.8
2023-01-30T01:25:54.000Z,17
2023-01-30T01:40:32.000Z,16.5
2023-01-30T01:55:09.000Z,16.2
2023-01-30T02:09:49.000Z,15.2
2023-01-30T02:24:18.000Z,16.2
2023-01-30T02:38:54.000Z,17.4
2023-01-30T02:53:31.000Z,16.1
2023-01-30T03:08:09.000Z,15.2
2023-01-30T03:22:45.000Z,16.9
2023-01-30T03:37:22.000Z,15
2023-01-30T03:51:57.000Z,16.2
2023-01-30T04:06:33.000Z,18.3
2023-01-30T04:21:11.000Z,16.2
2023-01-30T04:35:48.000Z,17.8
2023-01-30T04:50:25.000Z,18.8
2023-01-30T05:05:03.000Z,18.2
2023-01-30T05:19:43.000Z,17.9
2023-01-30T05:34:17.000Z,17.4
2023-01-30T05:48:55.000Z,16.6
2023-01-30T06:03:32.000Z,14.9
2023-01-30T06:18:10.000Z,14.6
2023-01-30T06:32:42.000Z,12.4
2023-01-30T06:47:19.000Z,12.9
2023-01-30T07:01:58.000Z,13.3
2023-01-30T07:16:34.000Z,12
2023-01-30T07:31:12.000Z,11.5
2023-01-30T07:45:42.000Z,10.5
2023-01-30T08:00:20.000Z,7.2
2023-01-30T08:14:54.000Z,5
2023-01-30T08:29:31.000Z,4.5
2023-01-30T08:44:10.000Z,4
2023-01-30T08:58:50.000Z,2.8
2023-01-30T09:13:27.000Z,2.9
2023-01-30T09:28:05.000Z,2.8
2023-01-30T09:42:43.000Z,3.3
2023-01-30T09:57:13.000Z,3.6
2023-01-30T10:11:50.000Z,2.6
2023-01-30T10:26:26.000Z,2.3
2023-01-30T10:41:04.000Z,2.1
2023-01-30T10:55:42.000Z,2.9
2023-01-30T11:10:26.000Z,1.6
2023-01-30T11:25:00.000Z,1.7
2023-01-30T11:39:37.000Z,2.1
2023-01-30T11:54:12.000Z,1.9
2023-01-30T12:08:52.000Z,2.1
2023-01-30T12:23:29.000Z,2.1
2023-01-30T12:38:09.000Z,1.5
2023-01-30T12:52:47.000Z,1.7
2023-01-30T13:07:24.000Z,1.8
2023-01-30T13:22:00.000Z,1.8
2023-01-30T13:36:37.000Z,1.8
2023-01-30T13:51:14.000Z,2.3
2023-01-30T14:05:56.000Z,2.8
2023-01-30T14:20:33.000Z,2.1
2023-01-30T14:35:10.000Z,1.8
2023-01-30T14:49:46.000Z,2
2023-01-30T15:04:23.000Z,2.1
2023-01-30T15:19:00.000Z,1.9
2023-01-30T15:33:38.000Z,1.6
2023-01-30T15:48:15.000Z,2.2
2023-01-30T16:02:53.000Z,2
2023-01-30T16:17:32.000Z,2.3
2023-01-30T16:32:09.000Z,2.5
2023-01-30T16:46:45.000Z,2.6
2023-01-30T17:01:22.000Z,2.6
2023-01-30T17:15:59.000Z,2.5
2023-01-30T17:30:38.000Z,2.4
2023-01-30T17:45:16.000Z,2.5
2023-01-30T17:59:54.000Z,2.1
2023-01-30T18:14:32.000Z,3.5
2023-01-30T18:29:10.000Z,2.4
2023-01-30T18:43:48.000Z,2.5
2023-01-30T18:58:24.000Z,2.6
2023-01-30T19:13:02.000Z,3.9
2023-01-30T19:27:39.000Z,2.4
2023-01-30T19:42:16.000Z,2.3
2023-01-30T19:56:54.000Z,2.6
2023-01-30T20:11:32.000Z,2.7
2023-01-30T20:26:10.000Z,2.4
2023-01-30T20:40:46.000Z,2.7
2023-01-30T20:55:22.000Z,6.1
2023-01-30T21:09:59.000Z,2.9
2023-01-30T21:24:35.000Z,3
2023-01-30T21:39:12.000Z,3.1
2023-01-30T21:53:49.000Z,3.3
2023-01-30T22:08:23.000Z,3.6
2023-01-30T22:23:01.000Z,3.4
2023-01-30T22:37:39.000Z,3.5
2023-01-30T22:52:12.000Z,3.7
2023-01-30T23:06:50.000Z,3.1
2023-01-30T23:21:26.000Z,3.2
2023-01-30T23:36:03.000Z,3.5
2023-01-30T23:50:35.000Z,4
